Time;durP1;ratioP1;P1;durP2;ratioP2;P2;SDS_P1;SDS_P2;PMS_P1;PMS_P2;Temp;Humidity;BMP_temperature;BMP_pressure;BME280_temperature;BME280_humidity;BME280_pressure;Samples;Min_cycle;Max_cycle;Signal;HPM_P1;HPM_P2
2022/03/12 00:02:13;;;;;;;10.27;7.10;;;3.60;39.10;;;;;;6042772;23;20233;-90
2022/03/12 00:04:41;;;;;;;10.77;7.10;;;3.60;39.20;;;;;;6043623;23;20185;-89
2022/03/12 00:07:09;;;;;;;11.83;7.03;;;3.60;39.00;;;;;;6068346;23;20176;-88
2022/03/12 00:09:35;;;;;;;15.40;8.03;;;3.60;39.30;;;;;;6043684;23;20487;-89
2022/03/12 00:12:01;;;;;;;10.03;7.17;;;3.60;39.50;;;;;;6042898;23;20228;-88
2022/03/12 00:14:28;;;;;;;9.83;6.90;;;3.50;39.60;;;;;;6043059;23;20163;-89
2022/03/12 00:16:54;;;;;;;11.13;7.27;;;3.50;40.00;;;;;;6042612;23;20658;-88
2022/03/12 00:19:20;;;;;;;13.63;7.53;;;3.50;39.30;;;;;;6042854;23;20162;-88
2022/03/12 00:21:47;;;;;;;15.13;7.33;;;3.50;39.40;;;;;;6042614;23;20184;-88
2022/03/12 00:24:15;;;;;;;11.70;7.30;;;3.50;39.20;;;;;;6042661;23;20163;-88
2022/03/12 00:26:43;;;;;;;11.30;6.97;;;3.60;39.20;;;;;;6044824;23;20193;-88
2022/03/12 00:29:13;;;;;;;12.57;6.87;;;3.50;39.30;;;;;;6066597;23;20489;-88
2022/03/12 00:31:40;;;;;;;13.37;7.63;;;3.40;39.60;;;;;;6067610;23;20230;-89
2022/03/12 00:34:06;;;;;;;12.53;7.17;;;3.30;40.10;;;;;;6066651;23;20158;-88
2022/03/12 00:36:34;;;;;;;12.50;7.10;;;3.30;40.50;;;;;;6067961;23;20186;-88
2022/03/12 00:39:00;;;;;;;16.30;7.63;;;3.30;40.10;;;;;;6068473;23;20167;-88
2022/03/12 00:41:26;;;;;;;12.23;7.37;;;3.30;40.70;;;;;;6068254;23;20614;-88
2022/03/12 00:43:51;;;;;;;13.80;7.60;;;3.30;39.90;;;;;;6068383;23;20611;-88
2022/03/12 00:46:18;;;;;;;11.73;6.83;;;3.30;40.20;;;;;;6068244;23;20183;-89
2022/03/12 00:48:44;;;;;;;11.80;7.20;;;3.20;40.40;;;;;;6068587;23;20166;-89
2022/03/12 00:51:10;;;;;;;11.27;7.13;;;3.20;40.20;;;;;;6069791;23;20291;-89
2022/03/12 00:53:37;;;;;;;13.73;7.30;;;3.30;40.10;;;;;;6068194;23;20581;-89
2022/03/12 00:56:05;;;;;;;12.83;7.07;;;3.20;40.40;;;;;;6068073;23;20251;-90
2022/03/12 00:58:30;;;;;;;10.07;6.90;;;3.20;40.50;;;;;;6068619;23;20683;-89
2022/03/12 01:00:56;;;;;;;11.23;7.40;;;3.10;40.70;;;;;;6068303;23;20187;-89
2022/03/12 01:03:22;;;;;;;12.57;7.10;;;3.00;41.10;;;;;;6069541;23;20201;-89
2022/03/12 01:05:50;;;;;;;9.70;6.80;;;3.00;41.30;;;;;;6070060;23;20151;-89
2022/03/12 01:08:18;;;;;;;13.23;7.87;;;3.00;41.00;;;;;;6068017;23;20184;-89
2022/03/12 01:10:44;;;;;;;11.00;7.90;;;2.90;41.30;;;;;;6068268;23;20219;-89
2022/03/12 01:13:13;;;;;;;12.93;7.40;;;2.90;41.40;;;;;;6068355;23;20168;-89
2022/03/12 01:15:39;;;;;;;14.03;7.53;;;3.00;40.80;;;;;;6068294;23;20222;-89
2022/03/12 01:18:11;;;;;;;13.40;7.77;;;3.00;41.20;;;;;;6070024;23;20178;-89
2022/03/12 01:20:36;;;;;;;15.60;7.67;;;2.90;41.70;;;;;;6068225;23;20544;-89
2022/03/12 01:23:04;;;;;;;11.23;6.60;;;2.90;41.40;;;;;;6070041;23;20173;-89
2022/03/12 01:25:29;;;;;;;15.97;7.77;;;2.90;41.20;;;;;;6068211;23;20620;-89
2022/03/12 01:27:55;;;;;;;17.83;7.17;;;2.80;41.30;;;;;;6068803;23;20203;-89
2022/03/12 01:30:31;;;;;;;11.73;7.40;;;2.80;41.80;;;;;;6068080;23;20222;-89
2022/03/12 01:32:58;;;;;;;11.60;7.03;;;2.80;42.00;;;;;;6068783;23;20176;-89
2022/03/12 01:35:24;;;;;;;14.93;7.47;;;2.80;42.10;;;;;;6067848;23;20217;-89
2022/03/12 01:37:50;;;;;;;10.33;6.83;;;2.80;42.20;;;;;;6067877;23;20262;-89
2022/03/12 01:40:16;;;;;;;13.20;7.40;;;2.80;42.20;;;;;;6067811;23;20184;-89
2022/03/12 01:42:42;;;;;;;13.50;8.20;;;2.70;42.50;;;;;;6068457;23;20271;-90
2022/03/12 01:45:12;;;;;;;13.13;7.70;;;2.70;42.30;;;;;;6067879;23;20172;-89
2022/03/12 01:47:38;;;;;;;12.57;6.93;;;2.60;42.70;;;;;;6067987;23;20176;-89
2022/03/12 01:50:05;;;;;;;12.90;7.87;;;2.70;42.20;;;;;;6067868;23;20226;-89
2022/03/12 01:52:31;;;;;;;12.83;8.33;;;2.70;42.70;;;;;;6067715;23;20187;-89
2022/03/12 01:54:57;;;;;;;11.13;7.30;;;2.60;42.80;;;;;;6067774;23;20166;-89
2022/03/12 01:57:23;;;;;;;11.33;7.73;;;2.60;42.50;;;;;;6067508;23;20734;-89
2022/03/12 01:59:49;;;;;;;17.07;8.37;;;2.60;43.10;;;;;;6069149;23;20221;-89
2022/03/12 02:02:15;;;;;;;12.57;8.33;;;2.60;42.90;;;;;;6067536;23;20188;-89
2022/03/12 02:04:50;;;;;;;16.03;8.83;;;2.50;43.10;;;;;;6067668;23;20157;-89
2022/03/12 02:07:16;;;;;;;14.87;8.87;;;2.50;42.90;;;;;;6068144;23;20185;-89
2022/03/12 02:09:42;;;;;;;16.60;8.27;;;2.50;43.10;;;;;;6067481;23;20157;-89
2022/03/12 02:12:08;;;;;;;17.60;8.33;;;2.50;43.10;;;;;;6067570;23;20185;-89
2022/03/12 02:14:34;;;;;;;13.17;8.27;;;2.50;43.00;;;;;;6067721;23;20165;-89
2022/03/12 02:17:03;;;;;;;12.93;8.10;;;2.40;43.00;;;;;;6068865;23;20175;-89
2022/03/12 02:19:31;;;;;;;13.60;8.23;;;2.40;42.90;;;;;;6067297;23;20161;-89
2022/03/12 02:21:59;;;;;;;14.27;8.50;;;2.50;43.00;;;;;;6067561;23;20164;-89
2022/03/12 02:24:27;;;;;;;12.33;7.80;;;2.40;43.00;;;;;;6069124;23;20158;-89
2022/03/12 02:26:54;;;;;;;14.87;8.33;;;2.40;43.10;;;;;;6067267;23;20251;-90
2022/03/12 02:29:22;;;;;;;12.63;8.33;;;2.40;43.00;;;;;;6067509;23;20162;-89
2022/03/12 02:32:01;;;;;;;15.23;7.83;;;2.40;42.80;;;;;;6067209;23;20187;-87
2022/03/12 02:34:38;;;;;;;15.63;8.03;;;2.40;42.80;;;;;;6067402;23;20155;-89
2022/03/12 02:37:05;;;;;;;12.10;7.07;;;2.50;42.60;;;;;;6067261;23;20181;-89
2022/03/12 02:39:31;;;;;;;13.27;7.80;;;2.30;42.80;;;;;;6067381;23;20159;-90
2022/03/12 02:42:00;;;;;;;14.97;8.13;;;2.30;42.50;;;;;;6067553;23;20160;-89
2022/03/12 02:44:27;;;;;;;10.00;6.47;;;2.30;42.50;;;;;;6067177;23;20168;-89
2022/03/12 02:47:22;;;;;;;16.00;8.30;;;2.40;42.10;;;;;;6068632;23;20257;-89
2022/03/12 02:49:52;;;;;;;12.90;7.20;;;2.40;42.50;;;;;;6067533;23;20165;-89
2022/03/12 02:52:18;;;;;;;17.87;8.13;;;2.40;42.50;;;;;;6067093;23;20175;-89
2022/03/12 02:54:45;;;;;;;13.03;6.57;;;2.30;42.30;;;;;;6067227;23;20238;-90
2022/03/12 02:57:12;;;;;;;14.13;7.87;;;2.40;42.50;;;;;;6067709;23;20238;-89
2022/03/12 02:59:39;;;;;;;12.60;7.70;;;2.30;42.40;;;;;;6068269;23;20611;-89
2022/03/12 03:02:09;;;;;;;16.77;7.90;;;2.30;42.50;;;;;;6067160;23;20153;-89
2022/03/12 03:04:36;;;;;;;14.17;8.70;;;2.30;42.60;;;;;;6067145;23;20218;-89
2022/03/12 03:07:06;;;;;;;13.50;7.90;;;2.30;41.90;;;;;;6068847;23;20173;-90
2022/03/12 03:09:32;;;;;;;17.33;7.30;;;2.30;42.20;;;;;;6067380;23;20170;-89
2022/03/12 03:12:02;;;;;;;12.50;7.60;;;2.30;42.20;;;;;;6066897;23;20265;-89
2022/03/12 03:14:28;;;;;;;20.77;8.60;;;2.20;42.40;;;;;;6068483;23;20215;-89
2022/03/12 03:16:54;;;;;;;13.87;7.53;;;2.20;42.70;;;;;;6066856;23;20600;-89
2022/03/12 03:19:26;;;;;;;14.83;7.57;;;2.10;43.10;;;;;;6067076;23;20157;-89
2022/03/12 03:21:53;;;;;;;15.60;7.40;;;2.10;42.80;;;;;;6067005;23;20228;-89
2022/03/12 03:24:19;;;;;;;12.77;7.83;;;2.10;42.90;;;;;;6066871;23;20213;-89
2022/03/12 03:26:49;;;;;;;10.50;7.37;;;2.00;42.90;;;;;;6066598;23;20194;-89
2022/03/12 03:29:15;;;;;;;12.57;7.63;;;2.00;43.00;;;;;;6066846;23;20502;-89
2022/03/12 03:31:41;;;;;;;12.57;7.87;;;2.00;42.90;;;;;;6068570;23;20176;-89
2022/03/12 03:34:07;;;;;;;13.40;8.13;;;2.00;43.10;;;;;;6066981;23;20539;-89
2022/03/12 03:36:33;;;;;;;12.93;7.93;;;2.00;43.10;;;;;;6066765;23;20194;-89
2022/03/12 03:38:59;;;;;;;13.03;7.57;;;2.00;42.90;;;;;;6067310;23;20502;-89
2022/03/12 03:41:25;;;;;;;13.07;7.57;;;1.90;43.30;;;;;;6066811;23;20499;-89
2022/03/12 03:43:51;;;;;;;13.90;7.93;;;1.90;43.20;;;;;;6067224;23;20162;-89
2022/03/12 03:46:20;;;;;;;18.00;8.27;;;1.90;43.20;;;;;;6067728;23;20495;-89
2022/03/12 03:48:47;;;;;;;14.50;7.87;;;1.90;43.40;;;;;;6066818;23;20169;-90
2022/03/12 03:51:13;;;;;;;12.43;7.40;;;1.80;43.40;;;;;;6066969;23;20158;-89
2022/03/12 03:53:39;;;;;;;13.33;7.40;;;1.80;43.20;;;;;;6066587;23;20508;-89
2022/03/12 03:56:05;;;;;;;14.20;8.63;;;1.80;43.80;;;;;;6066602;23;20155;-89
2022/03/12 03:58:32;;;;;;;12.17;7.50;;;1.70;43.80;;;;;;6066668;23;20551;-89
2022/03/12 04:01:11;;;;;;;15.70;8.33;;;1.70;43.60;;;;;;6068175;23;20155;-89
2022/03/12 04:03:38;;;;;;;13.83;7.60;;;1.70;43.90;;;;;;6066663;23;20161;-89
2022/03/12 04:06:04;;;;;;;13.83;8.03;;;1.70;43.90;;;;;;6066515;23;20165;-89
2022/03/12 04:08:31;;;;;;;14.47;7.47;;;1.60;44.00;;;;;;6066583;23;20161;-89
2022/03/12 04:10:57;;;;;;;14.03;8.47;;;1.70;43.10;;;;;;6069147;23;20190;-89
2022/03/12 04:13:24;;;;;;;12.00;8.23;;;1.70;44.00;;;;;;6068548;23;20175;-89
2022/03/12 04:15:52;;;;;;;13.97;8.23;;;1.60;44.10;;;;;;6068577;23;20283;-89
2022/03/12 04:18:21;;;;;;;11.60;7.37;;;1.50;44.10;;;;;;6068535;23;20183;-90
2022/03/12 04:20:48;;;;;;;12.00;6.53;;;1.50;44.50;;;;;;6068668;23;20501;-89
2022/03/12 04:23:20;;;;;;;13.53;7.87;;;1.40;44.20;;;;;;6068541;23;20167;-90
2022/03/12 04:25:51;;;;;;;20.63;8.37;;;1.50;44.60;;;;;;6068606;23;20227;-89
2022/03/12 04:28:17;;;;;;;13.03;7.73;;;1.40;44.60;;;;;;6068267;23;20274;-90
2022/03/12 04:30:43;;;;;;;15.07;8.43;;;1.40;44.30;;;;;;6068451;23;20161;-89
2022/03/12 04:33:11;;;;;;;18.70;8.87;;;1.40;44.40;;;;;;6069896;23;20222;-90
2022/03/12 04:35:36;;;;;;;13.40;8.40;;;1.30;44.60;;;;;;6068814;23;20596;-90
2022/03/12 04:38:03;;;;;;;15.37;8.30;;;1.30;44.50;;;;;;6069866;23;20306;-89
2022/03/12 04:40:29;;;;;;;14.07;7.50;;;1.30;44.70;;;;;;6069930;23;20179;-89
2022/03/12 04:42:55;;;;;;;13.40;7.53;;;1.30;45.00;;;;;;6068366;23;20163;-90
2022/03/12 04:45:23;;;;;;;13.73;7.93;;;1.30;44.40;;;;;;6069805;23;20164;-89
2022/03/12 04:47:50;;;;;;;17.10;8.70;;;1.30;44.40;;;;;;6068296;23;20214;-89
2022/03/12 04:50:18;;;;;;;13.60;7.43;;;1.40;44.00;;;;;;6068372;23;20159;-90
2022/03/12 04:52:46;;;;;;;13.03;7.20;;;1.30;44.00;;;;;;6068164;23;20183;-89
2022/03/12 04:55:15;;;;;;;14.10;8.23;;;1.30;44.20;;;;;;6069190;23;20159;-89
2022/03/12 04:57:41;;;;;;;12.77;7.53;;;1.30;44.50;;;;;;6068476;23;20517;-89
2022/03/12 05:00:10;;;;;;;11.93;7.10;;;1.30;44.60;;;;;;6069718;23;20153;-89
2022/03/12 05:02:35;;;;;;;11.03;7.20;;;1.20;44.80;;;;;;6067960;23;20165;-89
2022/03/12 05:05:01;;;;;;;11.63;7.37;;;1.30;44.00;;;;;;6068437;23;20482;-89
2022/03/12 05:07:27;;;;;;;13.60;8.20;;;1.30;44.00;;;;;;6069501;23;20644;-89
2022/03/12 05:09:55;;;;;;;11.63;7.43;;;1.30;44.20;;;;;;6069632;23;20160;-90
2022/03/12 05:12:22;;;;;;;11.50;7.50;;;1.20;43.90;;;;;;6068397;23;20187;-89
2022/03/12 05:14:48;;;;;;;11.87;7.33;;;1.20;44.10;;;;;;6068015;23;20240;-89
2022/03/12 05:17:14;;;;;;;14.17;7.67;;;1.20;44.50;;;;;;6068262;23;20185;-89
2022/03/12 05:19:40;;;;;;;13.60;7.37;;;1.10;44.40;;;;;;6068069;23;20254;-89
2022/03/12 05:22:07;;;;;;;11.43;6.90;;;1.10;44.70;;;;;;6068694;23;20164;-88
2022/03/12 05:24:33;;;;;;;13.10;7.80;;;1.10;43.70;;;;;;6069387;23;20616;-89
2022/03/12 05:26:59;;;;;;;13.10;7.60;;;1.20;44.00;;;;;;6061172;23;20208;-87
2022/03/12 05:29:25;;;;;;;10.40;6.77;;;1.20;43.90;;;;;;6039840;23;20163;-87
2022/03/12 05:31:52;;;;;;;10.47;6.47;;;1.20;43.90;;;;;;6039471;23;20209;-88
2022/03/12 05:34:22;;;;;;;12.60;7.57;;;1.10;43.60;;;;;;6041102;23;20606;-87
2022/03/12 05:36:51;;;;;;;12.80;7.57;;;1.10;44.10;;;;;;6039706;23;20663;-87
2022/03/12 05:39:18;;;;;;;12.63;6.97;;;1.10;43.90;;;;;;6039667;23;20160;-86
2022/03/12 05:41:48;;;;;;;12.63;7.13;;;1.20;43.60;;;;;;6040994;23;20154;-87
2022/03/12 05:44:14;;;;;;;11.43;7.17;;;1.20;43.30;;;;;;6039555;23;20171;-87
2022/03/12 05:46:44;;;;;;;11.93;7.30;;;1.20;43.20;;;;;;6039347;23;20482;-88
2022/03/12 05:49:09;;;;;;;15.90;7.63;;;1.20;43.20;;;;;;6041261;23;20508;-87
2022/03/12 05:51:36;;;;;;;13.47;7.60;;;1.20;43.30;;;;;;6040740;23;20234;-87
2022/03/12 05:54:03;;;;;;;11.73;7.60;;;1.20;42.90;;;;;;6041145;23;20148;-88
2022/03/12 05:56:29;;;;;;;14.07;8.10;;;1.30;42.90;;;;;;6041131;23;20497;-88
2022/03/12 05:58:54;;;;;;;12.67;7.43;;;1.30;42.80;;;;;;6039678;23;20157;-87
2022/03/12 06:01:20;;;;;;;14.73;7.67;;;1.30;43.00;;;;;;6040045;23;20664;-86
2022/03/12 06:03:46;;;;;;;14.23;7.63;;;1.30;43.10;;;;;;6041396;23;20159;-86
2022/03/12 06:06:13;;;;;;;18.80;8.03;;;1.30;43.30;;;;;;6039778;23;20260;-85
2022/03/12 06:08:39;;;;;;;12.47;7.17;;;1.30;42.90;;;;;;6041170;23;20655;-88
2022/03/12 06:11:05;;;;;;;13.83;8.50;;;1.40;43.50;;;;;;6040153;23;20665;-88
2022/03/12 06:13:32;;;;;;;13.03;7.47;;;1.30;43.40;;;;;;6039868;23;20180;-86
2022/03/12 06:15:58;;;;;;;11.17;7.00;;;1.50;42.70;;;;;;6039198;23;20164;-87
2022/03/12 06:18:35;;;;;;;10.80;6.93;;;1.50;42.80;;;;;;6039275;23;20707;-87
2022/03/12 06:21:02;;;;;;;11.70;7.00;;;1.60;42.80;;;;;;6039832;23;20157;-87
2022/03/12 06:23:28;;;;;;;11.10;7.33;;;1.50;42.80;;;;;;6040876;23;20184;-87
2022/03/12 06:25:55;;;;;;;9.10;6.83;;;1.70;42.50;;;;;;6039430;23;20158;-87
2022/03/12 06:28:21;;;;;;;11.13;6.97;;;1.80;41.60;;;;;;6038751;23;20534;-87
2022/03/12 06:30:48;;;;;;;13.07;7.00;;;1.80;42.20;;;;;;6040856;23;20176;-87
2022/03/12 06:33:18;;;;;;;16.97;7.73;;;1.80;42.40;;;;;;6038441;23;20527;-87
2022/03/12 06:35:44;;;;;;;12.33;7.20;;;1.90;41.20;;;;;;6040475;23;20231;-87
2022/03/12 06:38:10;;;;;;;11.93;6.80;;;2.00;41.80;;;;;;6039006;23;20237;-87
2022/03/12 06:40:36;;;;;;;13.67;8.33;;;2.00;41.90;;;;;;6038935;23;20161;-88
2022/03/12 06:43:19;;;;;;;16.70;7.67;;;2.10;41.50;;;;;;6038543;23;20189;-87
2022/03/12 06:45:46;;;;;;;10.47;6.87;;;2.10;41.60;;;;;;6039597;23;20593;-87
2022/03/12 06:48:12;;;;;;;10.37;7.33;;;2.20;41.30;;;;;;6038669;23;20182;-88
2022/03/12 06:50:38;;;;;;;10.93;7.37;;;2.30;41.80;;;;;;6038734;23;20172;-87
2022/03/12 06:53:04;;;;;;;12.00;7.63;;;2.30;41.10;;;;;;6040430;23;20266;-87
2022/03/12 06:55:31;;;;;;;10.70;6.87;;;2.30;41.50;;;;;;6038885;23;20157;-87
2022/03/12 06:57:58;;;;;;;10.63;6.53;;;2.40;41.00;;;;;;6038941;23;20317;-87
2022/03/12 07:00:26;;;;;;;10.63;7.03;;;2.50;40.80;;;;;;6039278;23;20157;-88
2022/03/12 07:02:52;;;;;;;9.40;6.83;;;2.60;40.60;;;;;;6039973;23;20155;-87
2022/03/12 07:05:18;;;;;;;8.67;6.17;;;2.60;40.50;;;;;;6039818;23;20260;-86
2022/03/12 07:07:43;;;;;;;12.90;8.57;;;2.60;40.30;;;;;;6040349;23;20204;-87
2022/03/12 07:10:09;;;;;;;10.90;6.93;;;2.70;40.50;;;;;;6038921;23;20218;-87
2022/03/12 07:12:37;;;;;;;12.73;7.80;;;2.80;40.00;;;;;;6040117;23;20183;-86
2022/03/12 07:15:04;;;;;;;10.70;7.10;;;2.80;40.50;;;;;;6038716;23;20159;-86
2022/03/12 07:17:31;;;;;;;16.43;6.87;;;3.00;40.60;;;;;;6038706;23;20183;-87
2022/03/12 07:19:56;;;;;;;11.27;6.37;;;3.00;40.60;;;;;;6040319;23;20154;-88
2022/03/12 07:22:22;;;;;;;11.10;6.70;;;3.10;39.80;;;;;;6038821;23;20165;-89
2022/03/12 07:24:48;;;;;;;17.97;6.43;;;3.20;39.00;;;;;;6038654;23;20163;-88
2022/03/12 07:27:14;;;;;;;12.67;6.07;;;3.10;39.40;;;;;;6038410;23;20203;-88
2022/03/12 07:29:39;;;;;;;11.23;6.93;;;3.20;38.80;;;;;;6040488;23;20422;-89
2022/03/12 07:32:06;;;;;;;14.50;6.60;;;3.30;39.80;;;;;;6039182;23;20187;-89
2022/03/12 07:34:31;;;;;;;9.40;6.67;;;3.30;39.60;;;;;;6038743;23;20170;-88
2022/03/12 07:36:57;;;;;;;11.00;6.83;;;3.30;38.20;;;;;;6038674;23;20495;-88
2022/03/12 07:39:22;;;;;;;9.73;6.70;;;3.20;38.20;;;;;;6038579;23;20165;-88
2022/03/12 07:41:48;;;;;;;12.17;6.63;;;3.30;39.30;;;;;;6038539;23;20173;-88
2022/03/12 07:44:14;;;;;;;14.23;6.83;;;3.30;38.60;;;;;;6039982;23;20170;-88
2022/03/12 07:46:39;;;;;;;8.73;6.27;;;3.30;38.40;;;;;;6040071;23;20164;-88
2022/03/12 07:49:05;;;;;;;10.00;6.60;;;3.30;38.90;;;;;;6040118;23;20187;-88
2022/03/12 07:51:32;;;;;;;11.93;6.80;;;3.30;38.70;;;;;;6062127;23;20612;-88
2022/03/12 07:53:59;;;;;;;11.20;6.77;;;3.30;38.30;;;;;;6038265;23;20158;-88
2022/03/12 07:56:25;;;;;;;11.30;5.67;;;3.30;38.80;;;;;;6038974;23;20166;-88
2022/03/12 07:58:51;;;;;;;26.53;8.30;;;3.30;38.10;;;;;;6038380;23;20263;-88
2022/03/12 08:01:16;;;;;;;11.80;6.83;;;3.40;39.10;;;;;;6039891;23;20156;-88
2022/03/12 08:03:42;;;;;;;12.37;6.57;;;3.40;38.20;;;;;;6039849;23;20623;-88
2022/03/12 08:06:09;;;;;;;17.97;7.27;;;3.40;38.40;;;;;;6038586;23;20254;-88
2022/03/12 08:08:35;;;;;;;12.60;6.63;;;3.40;38.50;;;;;;6038311;23;20310;-88
2022/03/12 08:13:46;;;;;;;10.73;6.60;;;3.40;39.50;;;;;;6040285;23;20287;-88
2022/03/12 08:16:16;;;;;;;11.60;7.33;;;3.40;39.10;;;;;;6039956;23;20148;-88
2022/03/12 08:18:42;;;;;;;12.83;6.63;;;3.40;39.30;;;;;;6039694;23;20172;-88
2022/03/12 08:21:09;;;;;;;13.20;7.13;;;3.50;38.90;;;;;;6039921;23;20148;-88
2022/03/12 08:23:35;;;;;;;12.07;7.33;;;3.50;39.50;;;;;;6038104;23;20451;-88
2022/03/12 08:26:01;;;;;;;10.20;6.37;;;3.50;39.40;;;;;;6038198;23;20164;-88
2022/03/12 08:28:27;;;;;;;13.03;6.43;;;3.50;39.10;;;;;;6063017;23;20587;-89
2022/03/12 08:30:53;;;;;;;13.00;5.83;;;3.50;39.50;;;;;;6068302;23;20155;-88
2022/03/12 08:33:20;;;;;;;9.90;6.17;;;3.60;39.90;;;;;;6066686;23;20272;-88
2022/03/12 08:35:46;;;;;;;10.30;7.47;;;3.60;39.70;;;;;;6066988;23;20218;-88
2022/03/12 08:38:12;;;;;;;11.17;6.73;;;3.60;39.40;;;;;;6068303;23;20191;-89
2022/03/12 08:40:37;;;;;;;15.20;7.50;;;3.70;39.10;;;;;;6067173;23;20248;-88
2022/03/12 08:43:03;;;;;;;8.60;5.97;;;3.80;39.40;;;;;;6066846;23;20270;-88
2022/03/12 08:45:30;;;;;;;12.10;6.63;;;3.90;39.50;;;;;;6067472;23;20192;-89
2022/03/12 08:47:55;;;;;;;10.00;6.67;;;4.10;39.00;;;;;;6067254;23;20206;-88
2022/03/12 08:50:21;;;;;;;10.10;6.30;;;4.10;39.10;;;;;;6067189;23;20550;-88
2022/03/12 08:52:47;;;;;;;11.87;6.33;;;4.20;38.50;;;;;;6066988;23;20184;-88
2022/03/12 08:55:13;;;;;;;10.60;5.90;;;4.20;38.90;;;;;;6066946;23;20230;-88
2022/03/12 08:57:39;;;;;;;9.20;6.47;;;4.40;37.80;;;;;;6068395;23;20180;-89
2022/03/12 09:00:07;;;;;;;10.47;6.47;;;4.50;37.90;;;;;;6068686;23;20159;-88
2022/03/12 09:02:34;;;;;;;9.33;6.13;;;4.60;37.40;;;;;;6068366;23;20192;-88
2022/03/12 09:05:01;;;;;;;9.57;6.20;;;4.70;38.50;;;;;;6069912;23;20152;-88
2022/03/12 09:07:26;;;;;;;10.33;6.23;;;4.80;38.60;;;;;;6068605;23;20183;-88
2022/03/12 09:09:54;;;;;;;10.20;6.60;;;4.90;37.90;;;;;;6069852;23;20191;-88
2022/03/12 09:12:19;;;;;;;12.53;6.23;;;5.00;38.00;;;;;;6068346;23;20190;-88
2022/03/12 09:14:45;;;;;;;10.60;6.77;;;5.10;37.60;;;;;;6068284;23;20156;-89
2022/03/12 09:17:10;;;;;;;14.07;6.40;;;5.30;37.20;;;;;;6068513;23;20230;-86
2022/03/12 09:19:36;;;;;;;9.90;6.27;;;5.30;36.50;;;;;;6068540;23;20210;-89
2022/03/12 09:22:03;;;;;;;8.37;6.10;;;5.40;37.20;;;;;;6068643;23;20619;-89
2022/03/12 09:24:29;;;;;;;9.37;6.07;;;5.40;35.40;;;;;;6069781;23;20160;-88
2022/03/12 09:26:54;;;;;;;8.57;6.10;;;5.50;35.50;;;;;;6068284;23;20215;-88
2022/03/12 09:29:20;;;;;;;8.40;5.97;;;5.60;36.80;;;;;;6068491;23;20157;-88
2022/03/12 09:31:46;;;;;;;7.27;5.80;;;5.80;35.80;;;;;;6068090;23;20219;-88
2022/03/12 09:34:11;;;;;;;8.23;5.83;;;5.80;36.10;;;;;;6069790;23;20590;-89
2022/03/12 09:36:39;;;;;;;8.67;5.73;;;6.00;35.10;;;;;;6068126;23;20163;-89
2022/03/12 09:39:06;;;;;;;9.20;6.10;;;6.10;35.70;;;;;;6068196;23;20181;-87
2022/03/12 09:41:38;;;;;;;9.00;5.90;;;6.30;35.70;;;;;;6068350;23;20162;-89
2022/03/12 09:44:04;;;;;;;12.57;6.27;;;6.50;35.90;;;;;;6069954;23;20189;-88
2022/03/12 09:46:30;;;;;;;10.37;5.87;;;6.50;35.70;;;;;;6068250;23;20551;-89
2022/03/12 09:48:55;;;;;;;11.10;6.70;;;6.60;34.90;;;;;;6068555;23;20167;-89
2022/03/12 09:51:22;;;;;;;12.10;5.70;;;6.80;34.40;;;;;;6068293;23;20626;-89
2022/03/12 09:53:48;;;;;;;12.17;6.37;;;6.80;34.30;;;;;;6067873;23;20548;-89
2022/03/12 09:56:13;;;;;;;11.63;6.50;;;6.80;34.00;;;;;;6068240;23;20164;-89
2022/03/12 09:58:41;;;;;;;13.17;5.70;;;7.10;35.10;;;;;;6068379;23;20270;-86
2022/03/12 10:01:06;;;;;;;9.73;6.93;;;7.20;34.60;;;;;;6069875;23;20671;-86
2022/03/12 10:03:32;;;;;;;10.50;6.07;;;7.30;34.40;;;;;;6070252;23;20159;-89
2022/03/12 10:05:58;;;;;;;10.47;5.83;;;7.30;32.90;;;;;;6068871;23;20678;-90
2022/03/12 10:08:23;;;;;;;8.07;5.73;;;7.40;34.00;;;;;;6068124;23;20643;-88
2022/03/12 10:10:49;;;;;;;7.43;5.47;;;7.60;33.30;;;;;;6069284;23;20162;-88
2022/03/12 10:13:15;;;;;;;12.23;6.10;;;7.60;33.30;;;;;;6067594;23;20180;-87
2022/03/12 10:15:41;;;;;;;10.57;7.43;;;7.80;33.80;;;;;;6068104;23;20251;-88
2022/03/12 10:18:07;;;;;;;8.33;5.53;;;7.80;32.20;;;;;;6068247;23;20711;-89
2022/03/12 10:20:33;;;;;;;9.93;6.63;;;7.90;33.10;;;;;;6073115;23;20156;-91
2022/03/12 10:22:59;;;;;;;9.63;5.97;;;8.00;33.90;;;;;;6069623;23;20632;-90
2022/03/12 10:25:25;;;;;;;9.90;7.10;;;8.10;33.40;;;;;;6070262;23;20613;-89
2022/03/12 10:27:51;;;;;;;15.27;6.37;;;8.30;33.50;;;;;;6067538;23;20191;-87
2022/03/12 10:30:17;;;;;;;8.37;6.00;;;8.30;33.20;;;;;;6067833;23;20179;-88
2022/03/12 10:32:47;;;;;;;10.40;6.07;;;8.50;32.20;;;;;;6067885;23;20164;-88
2022/03/12 10:35:19;;;;;;;9.00;5.87;;;8.40;33.10;;;;;;6068386;23;20207;-88
2022/03/12 10:37:46;;;;;;;9.10;6.00;;;8.70;33.10;;;;;;6069554;23;20172;-88
2022/03/12 10:40:27;;;;;;;15.07;7.33;;;8.80;31.70;;;;;;6068373;23;20213;-86
2022/03/12 10:43:05;;;;;;;13.93;6.40;;;8.70;31.30;;;;;;6067472;23;20234;-88
2022/03/12 10:45:41;;;;;;;10.93;6.43;;;8.90;32.10;;;;;;6068429;23;20192;-93
2022/03/12 10:48:06;;;;;;;9.80;6.50;;;9.00;33.10;;;;;;6070302;23;20647;-86
2022/03/12 10:50:38;;;;;;;9.73;6.10;;;9.10;32.10;;;;;;6069588;23;20155;-88
2022/03/12 10:53:05;;;;;;;10.67;6.20;;;9.30;33.10;;;;;;6069898;23;20156;-89
2022/03/12 10:55:34;;;;;;;12.83;7.33;;;9.30;31.20;;;;;;6069228;23;20502;-90
2022/03/12 10:58:13;;;;;;;12.23;7.20;;;9.30;31.30;;;;;;6072142;23;20631;-89
2022/03/12 11:00:40;;;;;;;16.97;9.23;;;9.40;31.50;;;;;;6072477;23;20162;-87
2022/03/12 11:03:10;;;;;;;12.10;6.83;;;9.50;30.50;;;;;;6071489;23;20191;-89
2022/03/12 11:05:38;;;;;;;11.97;6.30;;;9.60;31.70;;;;;;6070755;23;20163;-88
2022/03/12 11:08:26;;;;;;;12.57;7.00;;;9.60;31.40;;;;;;6071405;23;20184;-89
2022/03/12 11:10:57;;;;;;;10.67;6.37;;;9.80;32.60;;;;;;6071260;23;20591;-89
2022/03/12 11:13:35;;;;;;;14.37;8.50;;;9.90;31.80;;;;;;6068572;23;20154;-88
2022/03/12 11:16:20;;;;;;;10.47;6.57;;;9.90;30.90;;;;;;6070609;23;20151;-89
2022/03/12 11:18:53;;;;;;;9.20;6.50;;;10.10;31.30;;;;;;6068234;23;20234;-89
2022/03/12 11:21:28;;;;;;;8.30;6.37;;;10.20;31.90;;;;;;6068603;23;20162;-89
2022/03/12 11:23:56;;;;;;;8.90;6.17;;;10.00;32.20;;;;;;6067581;23;20660;-89
2022/03/12 11:26:24;;;;;;;8.90;6.23;;;9.80;32.30;;;;;;6067934;23;20162;-89
2022/03/12 11:28:58;;;;;;;7.87;5.50;;;9.90;32.60;;;;;;6047839;23;20331;-90
2022/03/12 11:31:49;;;;;;;7.40;5.77;;;10.00;33.00;;;;;;6041171;23;20583;-90
2022/03/12 11:34:19;;;;;;;8.90;6.40;;;9.80;31.70;;;;;;6030411;23;20603;-91
2022/03/12 11:36:55;;;;;;;14.13;6.50;;;9.80;31.90;;;;;;6039227;23;20179;-91
2022/03/12 11:39:28;;;;;;;11.50;5.97;;;10.00;31.50;;;;;;6039034;23;20183;-91
2022/03/12 11:42:10;;;;;;;10.57;6.40;;;10.00;31.80;;;;;;6040954;23;20582;-90
2022/03/12 11:44:36;;;;;;;14.60;6.90;;;10.00;31.70;;;;;;6039203;23;20203;-90
2022/03/12 11:47:03;;;;;;;9.33;6.67;;;9.90;31.90;;;;;;6038609;23;20164;-90
2022/03/12 11:49:29;;;;;;;14.30;7.23;;;10.10;32.20;;;;;;6038831;23;20613;-88
2022/03/12 11:51:56;;;;;;;12.03;7.20;;;10.30;32.00;;;;;;6040565;23;20192;-90
2022/03/12 11:54:22;;;;;;;10.87;7.07;;;10.20;32.00;;;;;;6039486;23;20167;-90
2022/03/12 11:56:48;;;;;;;11.33;6.93;;;10.30;32.60;;;;;;6039692;23;20156;-90
2022/03/12 11:59:14;;;;;;;11.70;7.17;;;10.30;32.60;;;;;;6039625;23;20182;-90
2022/03/12 12:01:40;;;;;;;9.60;6.90;;;10.30;32.20;;;;;;6040156;23;20215;-91
2022/03/12 12:04:06;;;;;;;12.17;7.00;;;10.60;32.40;;;;;;6039506;23;20163;-90
2022/03/12 12:06:33;;;;;;;14.97;6.63;;;10.80;31.90;;;;;;6039754;23;20156;-90
2022/03/12 12:09:01;;;;;;;9.73;6.77;;;10.80;31.70;;;;;;6039722;23;20182;-89
2022/03/12 12:11:30;;;;;;;11.43;7.43;;;10.90;31.40;;;;;;6038666;23;20161;-89
2022/03/12 12:13:58;;;;;;;11.93;7.67;;;11.00;31.40;;;;;;6039242;23;20167;-90
2022/03/12 12:16:25;;;;;;;8.93;6.87;;;11.00;31.00;;;;;;6040293;23;20164;-90
2022/03/12 12:18:51;;;;;;;11.07;6.53;;;11.20;30.70;;;;;;6039918;23;20176;-90
2022/03/12 12:21:17;;;;;;;22.67;7.07;;;11.00;30.80;;;;;;6039367;23;20156;-89
2022/03/12 12:23:43;;;;;;;9.17;6.47;;;10.90;31.20;;;;;;6039296;23;20183;-90
2022/03/12 12:26:10;;;;;;;14.20;6.80;;;10.80;30.30;;;;;;6040143;23;20221;-90
2022/03/12 12:28:51;;;;;;;11.07;7.20;;;11.00;31.20;;;;;;6055257;23;20519;-91
2022/03/12 12:31:24;;;;;;;9.13;7.10;;;11.20;30.80;;;;;;6068498;23;20584;-92
2022/03/12 12:33:50;;;;;;;12.67;7.10;;;11.30;30.70;;;;;;6070920;23;20159;-89
2022/03/12 12:36:18;;;;;;;10.67;6.53;;;11.40;30.70;;;;;;6069734;23;20566;-90
2022/03/12 12:39:10;;;;;;;8.43;6.77;;;11.20;31.00;;;;;;6069701;23;20187;-89
2022/03/12 12:41:53;;;;;;;9.83;6.93;;;11.20;30.80;;;;;;6069830;23;20167;-89
2022/03/12 12:44:34;;;;;;;7.70;6.13;;;11.40;32.10;;;;;;6071204;23;20163;-89
2022/03/12 12:47:02;;;;;;;11.57;6.20;;;11.60;30.70;;;;;;6070995;23;20186;-89
2022/03/12 12:49:52;;;;;;;9.03;6.67;;;11.80;31.40;;;;;;6070243;23;20186;-89
2022/03/12 12:52:17;;;;;;;11.03;6.37;;;12.00;31.00;;;;;;6057090;23;20500;-89
2022/03/12 12:54:46;;;;;;;15.87;6.97;;;12.00;29.60;;;;;;6071633;23;20187;-90